createdAt,value
2019-02-16T00:01:58.826Z,21.00
2019-02-16T00:04:25.170Z,21.00
2019-02-16T00:06:51.221Z,20.90
2019-02-16T00:09:17.297Z,20.90
2019-02-16T00:11:43.340Z,20.90
2019-02-16T00:14:09.383Z,20.90
2019-02-16T00:21:28.625Z,20.80
2019-02-16T00:23:54.683Z,20.80
2019-02-16T00:26:21.012Z,20.80
2019-02-16T00:28:47.107Z,20.70
2019-02-16T00:31:13.464Z,20.80
2019-02-16T00:33:39.511Z,20.70
2019-02-16T00:36:05.588Z,20.70
2019-02-16T00:40:58.063Z,20.60
2019-02-16T00:43:24.137Z,20.60
2019-02-16T00:45:50.216Z,20.60
2019-02-16T00:50:43.032Z,20.50
2019-02-16T00:53:09.084Z,20.60
2019-02-16T00:55:35.536Z,20.50
2019-02-16T01:00:28.004Z,20.50
2019-02-16T01:02:54.197Z,20.50
2019-02-16T01:05:20.370Z,20.50
2019-02-16T01:07:46.412Z,20.50
2019-02-16T01:10:12.508Z,20.40
2019-02-16T01:12:38.556Z,20.40
2019-02-16T01:15:07.568Z,20.40
2019-02-16T01:17:33.960Z,20.40
2019-02-16T01:22:26.453Z,20.30
2019-02-16T01:24:52.824Z,20.30
2019-02-16T01:27:18.916Z,20.30
2019-02-16T01:29:44.974Z,20.30
2019-02-16T01:32:11.320Z,20.30
2019-02-16T01:34:37.396Z,20.30
2019-02-16T01:37:03.599Z,20.20
2019-02-16T01:39:29.876Z,20.30
2019-02-16T01:41:56.208Z,20.20
2019-02-16T01:44:22.544Z,20.20
2019-02-16T01:46:48.597Z,20.20
2019-02-16T01:49:14.680Z,20.20
2019-02-16T01:56:33.620Z,20.10
2019-02-16T01:59:00.009Z,20.10
2019-02-16T02:01:26.060Z,20.10
2019-02-16T02:06:18.567Z,20.00
2019-02-16T02:08:44.616Z,20.00
2019-02-16T02:11:11.039Z,20.00
2019-02-16T02:13:37.083Z,20.00
2019-02-16T02:16:03.128Z,20.00
2019-02-16T02:20:55.620Z,20.00
2019-02-16T02:23:21.672Z,19.90
2019-02-16T02:28:14.247Z,19.90
2019-02-16T02:30:40.350Z,19.90
2019-02-16T02:33:06.397Z,19.90
2019-02-16T02:37:58.903Z,19.90
2019-02-16T02:40:24.952Z,19.80
2019-02-16T02:42:51.059Z,19.80
2019-02-16T02:45:17.408Z,19.80
2019-02-16T02:47:43.457Z,19.80
2019-02-16T02:50:09.863Z,19.80
2019-02-16T02:55:04.652Z,19.70
2019-02-16T02:59:57.541Z,19.70
2019-02-16T03:02:23.592Z,19.70
2019-02-16T03:07:16.421Z,19.60
2019-02-16T03:09:42.500Z,19.60
2019-02-16T03:12:08.871Z,19.60
2019-02-16T03:14:36.334Z,19.60
2019-02-16T03:17:02.661Z,19.60
2019-02-16T03:19:29.107Z,19.50
2019-02-16T03:22:02.484Z,19.50
2019-02-16T03:24:23.162Z,19.50
2019-02-16T03:27:11.083Z,19.50
2019-02-16T03:29:40.941Z,19.50
2019-02-16T03:34:48.064Z,19.50
2019-02-16T03:37:20.708Z,19.50
2019-02-16T03:39:46.758Z,19.40
2019-02-16T03:42:12.845Z,19.40
2019-02-16T03:44:38.887Z,19.40
2019-02-16T03:47:04.987Z,19.40
2019-02-16T03:49:31.036Z,19.40
2019-02-16T03:54:23.868Z,19.40
2019-02-16T03:56:49.936Z,19.30
2019-02-16T03:59:16.020Z,19.40
2019-02-16T04:01:42.205Z,19.30
2019-02-16T04:06:34.703Z,19.30
2019-02-16T04:09:01.156Z,19.30
2019-02-16T04:11:27.489Z,19.30
2019-02-16T04:13:53.564Z,19.20
2019-02-16T04:16:19.612Z,19.20
2019-02-16T04:18:45.960Z,19.20
2019-02-16T04:21:12.299Z,19.20
2019-02-16T04:23:38.412Z,19.20
2019-02-16T04:28:35.056Z,19.10
2019-02-16T04:31:01.098Z,19.10
2019-02-16T04:33:27.144Z,19.10
2019-02-16T04:35:53.240Z,19.10
2019-02-16T04:38:19.286Z,19.10
2019-02-16T04:40:45.332Z,19.10
2019-02-16T04:43:11.426Z,19.00
2019-02-16T04:45:37.475Z,19.00
2019-02-16T04:48:03.528Z,19.00
2019-02-16T04:52:56.395Z,19.00
2019-02-16T04:55:22.757Z,19.00
2019-02-16T04:57:48.848Z,19.00
2019-02-16T05:00:15.211Z,19.00
2019-02-16T05:02:41.558Z,19.00
2019-02-16T05:05:07.846Z,18.90
2019-02-16T05:07:33.933Z,18.90
2019-02-16T05:09:59.981Z,18.90
2019-02-16T05:12:26.023Z,18.90
2019-02-16T05:14:52.124Z,18.80
2019-02-16T05:17:18.492Z,18.80
2019-02-16T05:19:44.540Z,18.80
2019-02-16T05:24:37.051Z,18.80
2019-02-16T05:27:03.105Z,18.80
2019-02-16T05:29:29.524Z,18.80
2019-02-16T05:31:55.572Z,18.70
2019-02-16T05:34:21.617Z,18.70
2019-02-16T05:36:48.139Z,18.70
2019-02-16T05:39:14.740Z,18.70
2019-02-16T05:41:40.819Z,18.70
2019-02-16T05:44:07.201Z,18.70
2019-02-16T05:49:00.019Z,18.70
2019-02-16T05:53:52.787Z,18.70
2019-02-16T05:56:18.878Z,18.60
2019-02-16T06:01:11.711Z,18.60
2019-02-16T06:06:04.188Z,18.60
2019-02-16T06:10:56.951Z,18.50
2019-02-16T06:13:22.998Z,18.50
2019-02-16T06:15:49.086Z,18.50
2019-02-16T06:20:41.548Z,18.50
2019-02-16T06:23:07.624Z,18.50
2019-02-16T06:25:33.984Z,18.50
2019-02-16T06:28:00.313Z,18.50
2019-02-16T06:30:26.359Z,18.60
2019-02-16T06:32:52.772Z,18.50
2019-02-16T06:35:23.909Z,18.60
2019-02-16T06:37:49.998Z,18.60
2019-02-16T06:40:16.364Z,18.60
2019-02-16T06:42:42.408Z,18.60
2019-02-16T06:45:08.484Z,18.60
2019-02-16T06:47:34.843Z,18.60
2019-02-16T06:50:01.030Z,18.70
2019-02-16T06:52:27.402Z,18.70
2019-02-16T06:54:53.488Z,18.70
2019-02-16T06:57:21.436Z,18.70
2019-02-16T06:59:47.484Z,18.70
2019-02-16T07:02:15.077Z,18.60
2019-02-16T07:07:08.256Z,18.70
2019-02-16T07:09:34.294Z,18.70
2019-02-16T07:12:00.350Z,18.70
2019-02-16T07:14:26.424Z,18.70
2019-02-16T07:16:54.693Z,18.60
2019-02-16T07:19:25.733Z,18.60
2019-02-16T07:21:51.780Z,18.70
2019-02-16T07:24:18.184Z,18.60
2019-02-16T07:26:44.232Z,18.60
2019-02-16T07:31:37.145Z,18.60
2019-02-16T07:34:03.192Z,18.60
2019-02-16T07:36:29.737Z,18.60
2019-02-16T07:38:55.784Z,18.60
2019-02-16T07:41:22.188Z,18.60
2019-02-16T07:43:50.135Z,18.60
2019-02-16T07:46:36.376Z,18.60
2019-02-16T07:49:23.196Z,18.60
2019-02-16T07:52:08.340Z,18.60
2019-02-16T07:54:39.373Z,18.60
2019-02-16T07:57:07.325Z,18.60
2019-02-16T07:59:38.048Z,18.60
2019-02-16T08:02:14.847Z,18.70
2019-02-16T08:04:42.832Z,18.70
2019-02-16T08:07:20.310Z,18.70
2019-02-16T08:09:50.765Z,18.70
2019-02-16T08:12:34.481Z,18.70
2019-02-16T08:15:02.428Z,18.70
2019-02-16T08:17:36.428Z,18.80
2019-02-16T08:20:09.185Z,18.80
2019-02-16T08:22:43.967Z,18.80
2019-02-16T08:27:43.272Z,18.90
2019-02-16T08:32:48.553Z,18.90
2019-02-16T08:38:10.372Z,19.00
2019-02-16T08:40:50.198Z,19.00
2019-02-16T08:45:52.449Z,19.10
2019-02-16T08:48:20.396Z,19.20
2019-02-16T08:50:51.105Z,19.10
2019-02-16T08:53:31.665Z,19.20
2019-02-16T08:55:59.616Z,19.20
2019-02-16T09:01:18.257Z,19.20
2019-02-16T09:03:49.443Z,19.20
2019-02-16T09:11:42.920Z,19.40
2019-02-16T09:17:13.420Z,19.30
2019-02-16T09:19:57.217Z,19.40
2019-02-16T09:22:25.189Z,19.40
2019-02-16T09:25:05.216Z,19.50
2019-02-16T09:27:38.857Z,19.50
2019-02-16T09:30:13.372Z,19.50
2019-02-16T09:32:41.353Z,19.50
2019-02-16T09:35:18.200Z,19.50
2019-02-16T09:37:48.900Z,19.50
2019-02-16T09:40:35.451Z,19.60
2019-02-16T09:43:06.332Z,19.60
2019-02-16T09:48:11.573Z,19.60
2019-02-16T09:50:42.686Z,19.60
2019-02-16T09:55:53.959Z,19.60
2019-02-16T09:58:30.622Z,19.50
2019-02-16T10:01:01.902Z,19.50
2019-02-16T10:03:29.905Z,19.50
2019-02-16T10:06:00.507Z,19.50
2019-02-16T10:08:30.980Z,19.50
2019-02-16T10:11:05.033Z,19.50
2019-02-16T10:13:39.576Z,19.50
2019-02-16T10:16:07.557Z,19.50
2019-02-16T10:18:35.504Z,19.50
2019-02-16T10:21:06.835Z,19.50
2019-02-16T10:23:49.552Z,19.50
2019-02-16T10:26:20.487Z,19.50
2019-02-16T10:28:48.439Z,19.40
2019-02-16T10:31:25.335Z,19.40
2019-02-16T10:36:36.330Z,19.40
2019-02-16T10:39:13.908Z,19.40
2019-02-16T10:41:41.888Z,19.40
2019-02-16T10:46:46.669Z,19.40
2019-02-16T10:49:23.253Z,19.40
2019-02-16T10:54:31.800Z,19.40
2019-02-16T10:56:59.748Z,19.40
2019-02-16T10:59:39.653Z,19.30
2019-02-16T11:02:23.075Z,19.30
2019-02-16T11:05:02.849Z,19.30
2019-02-16T11:10:10.124Z,19.30
2019-02-16T11:12:50.444Z,19.20
2019-02-16T11:15:21.048Z,19.20
2019-02-16T11:17:51.747Z,19.20
2019-02-16T11:23:24.013Z,19.20
2019-02-16T11:26:04.000Z,19.20
2019-02-16T11:28:41.471Z,19.20
2019-02-16T11:31:09.460Z,19.20
2019-02-16T11:33:46.620Z,19.20
2019-02-16T11:38:55.055Z,19.10
2019-02-16T11:41:25.792Z,19.20
2019-02-16T11:44:08.507Z,19.20
2019-02-16T11:46:52.717Z,19.20
2019-02-16T11:54:45.195Z,19.20
2019-02-16T11:57:06.606Z,19.20
2019-02-16T11:59:34.556Z,19.10
2019-02-16T12:04:46.003Z,19.10
2019-02-16T12:07:14.287Z,19.10
2019-02-16T12:09:48.402Z,19.10
2019-02-16T12:12:19.282Z,19.10
2019-02-16T12:15:03.688Z,19.10
2019-02-16T12:17:34.448Z,19.10
2019-02-16T12:20:02.403Z,19.10
2019-02-16T12:22:36.180Z,19.10
2019-02-16T12:25:08.792Z,19.10
2019-02-16T12:27:36.740Z,19.10
2019-02-16T12:32:40.214Z,19.10
2019-02-16T12:35:24.500Z,19.10
2019-02-16T12:37:52.451Z,19.10
2019-02-16T12:40:20.742Z,19.10
2019-02-16T12:42:51.510Z,19.10
2019-02-16T12:45:22.280Z,19.10
2019-02-16T12:48:08.649Z,19.10
2019-02-16T12:50:36.661Z,19.10
2019-02-16T12:53:21.141Z,19.10
2019-02-16T12:55:49.412Z,19.10
2019-02-16T12:58:23.229Z,19.10
2019-02-16T13:01:00.605Z,19.10
2019-02-16T13:03:34.155Z,19.10
2019-02-16T13:06:08.005Z,19.20
2019-02-16T13:08:50.941Z,19.20
2019-02-16T13:11:18.881Z,19.20
2019-02-16T13:13:46.876Z,19.30
2019-02-16T13:16:24.059Z,19.30
2019-02-16T13:18:54.763Z,19.30
2019-02-16T13:21:22.873Z,19.30
2019-02-16T13:23:50.824Z,19.40
2019-02-16T13:26:27.600Z,19.40
2019-02-16T13:29:04.260Z,19.40
2019-02-16T13:31:35.284Z,19.40
2019-02-16T13:34:18.152Z,19.50
2019-02-16T13:41:58.841Z,19.60
2019-02-16T13:44:32.751Z,19.60
2019-02-16T13:47:10.220Z,19.70
2019-02-16T13:49:44.069Z,19.70
2019-02-16T13:52:12.064Z,19.80
2019-02-16T13:54:40.017Z,19.80
2019-02-16T13:57:11.043Z,19.90
2019-02-16T13:59:42.022Z,19.90
2019-02-16T14:02:10.056Z,19.90
2019-02-16T14:04:38.040Z,20.00
2019-02-16T14:07:22.641Z,20.00
2019-02-16T14:10:08.603Z,20.00
2019-02-16T14:12:51.448Z,20.10
2019-02-16T14:15:31.496Z,20.10
2019-02-16T14:17:57.545Z,20.20
2019-02-16T14:22:50.043Z,20.20
2019-02-16T14:27:47.737Z,20.30
2019-02-16T14:30:13.780Z,20.30
2019-02-16T14:32:40.108Z,20.20
2019-02-16T14:37:41.675Z,20.20
2019-02-16T14:40:08.000Z,20.30
2019-02-16T14:42:34.438Z,20.20
2019-02-16T14:45:00.765Z,20.20
2019-02-16T14:47:27.197Z,20.20
2019-02-16T14:49:53.719Z,20.20
2019-02-16T14:52:19.768Z,20.20
2019-02-16T14:54:46.048Z,20.20
2019-02-16T14:57:12.182Z,20.20
2019-02-16T14:59:38.239Z,20.10
2019-02-16T15:02:04.271Z,20.10
2019-02-16T15:04:30.368Z,20.10
2019-02-16T15:09:23.127Z,20.10
2019-02-16T15:11:49.468Z,20.10
2019-02-16T15:14:15.551Z,20.10
2019-02-16T15:16:41.605Z,20.00
2019-02-16T15:19:07.649Z,20.00
2019-02-16T15:21:33.759Z,20.00
2019-02-16T15:24:00.092Z,20.00
2019-02-16T15:26:28.674Z,20.00
2019-02-16T15:31:20.850Z,20.00
2019-02-16T15:33:47.360Z,19.90
2019-02-16T15:36:13.689Z,19.90
2019-02-16T15:38:39.736Z,19.90
2019-02-16T15:41:05.966Z,19.90
2019-02-16T15:43:32.009Z,19.90
2019-02-16T15:45:58.400Z,19.80
2019-02-16T15:48:24.890Z,19.80
2019-02-16T15:50:50.934Z,19.80
2019-02-16T15:55:43.549Z,19.80
2019-02-16T15:58:09.885Z,19.80
2019-02-16T16:00:35.972Z,19.70
2019-02-16T16:03:02.275Z,19.70
2019-02-16T16:07:56.756Z,19.70
2019-02-16T16:10:37.256Z,19.70
2019-02-16T16:13:10.796Z,19.60
2019-02-16T16:15:45.276Z,19.60
2019-02-16T16:18:15.740Z,19.60
2019-02-16T16:20:46.352Z,19.60
2019-02-16T16:23:31.401Z,19.60
2019-02-16T16:31:02.144Z,19.50
2019-02-16T16:36:13.179Z,19.50
2019-02-16T16:38:47.578Z,19.50
2019-02-16T16:41:15.849Z,19.50
2019-02-16T16:44:00.188Z,19.40
2019-02-16T16:46:28.137Z,19.40
2019-02-16T16:48:56.096Z,19.40
2019-02-16T16:51:33.165Z,19.40
2019-02-16T16:59:07.162Z,19.30
2019-02-16T17:04:27.576Z,19.30
2019-02-16T17:07:04.904Z,19.30
2019-02-16T17:09:42.144Z,19.30
2019-02-16T17:12:34.648Z,19.30
2019-02-16T17:15:09.521Z,19.30
2019-02-16T17:17:37.708Z,19.20
2019-02-16T17:25:48.228Z,18.90
2019-02-16T17:28:33.048Z,18.80
2019-02-16T17:31:10.033Z,18.70
2019-02-16T17:33:38.305Z,18.70
2019-02-16T17:36:23.580Z,18.70
2019-02-16T17:38:51.536Z,18.70
2019-02-16T17:41:36.720Z,18.60
2019-02-16T17:44:04.672Z,18.60
2019-02-16T17:46:36.091Z,18.50
2019-02-16T17:49:06.814Z,18.50
2019-02-16T17:51:35.049Z,18.50
2019-02-16T17:56:54.329Z,18.40
2019-02-16T17:59:34.481Z,18.40
2019-02-16T18:02:09.004Z,18.60
2019-02-16T18:04:53.277Z,18.70
2019-02-16T18:07:21.544Z,18.70
2019-02-16T18:09:49.492Z,18.80
2019-02-16T18:12:21.255Z,18.80
2019-02-16T18:17:19.566Z,18.80
2019-02-16T18:19:48.002Z,18.90
2019-02-16T18:22:33.139Z,18.80
2019-02-16T18:30:25.194Z,18.80
2019-02-16T18:35:43.788Z,18.90
2019-02-16T18:40:56.076Z,18.90
2019-02-16T18:43:40.658Z,18.90
2019-02-16T18:46:25.349Z,18.90
2019-02-16T18:49:02.257Z,18.90
2019-02-16T18:51:39.186Z,19.00
2019-02-16T18:57:06.673Z,18.90
2019-02-16T18:59:33.113Z,18.90
2019-02-16T19:02:03.990Z,18.90
2019-02-16T19:04:32.374Z,18.90
2019-02-16T19:07:06.191Z,18.90
2019-02-16T19:09:51.429Z,18.90
2019-02-16T19:12:25.845Z,18.90
2019-02-16T19:17:23.207Z,19.00
2019-02-16T19:22:36.241Z,19.00
2019-02-16T19:27:54.096Z,19.00
2019-02-16T19:30:27.729Z,19.10
2019-02-16T19:32:58.941Z,19.10
2019-02-16T19:35:36.741Z,19.20
2019-02-16T19:40:36.708Z,19.20
2019-02-16T19:43:13.840Z,19.20
2019-02-16T19:45:41.787Z,19.30
2019-02-16T19:48:26.791Z,19.30
2019-02-16T19:51:09.710Z,19.30
2019-02-16T19:53:38.288Z,19.40
2019-02-16T20:01:27.185Z,19.50
2019-02-16T20:03:57.816Z,19.50
2019-02-16T20:09:13.747Z,19.60
2019-02-16T20:11:45.632Z,19.60
2019-02-16T20:16:41.904Z,19.50
2019-02-16T20:19:16.341Z,19.60
2019-02-16T20:21:47.379Z,19.60
2019-02-16T20:24:21.596Z,19.60
2019-02-16T20:26:55.708Z,19.60
2019-02-16T20:29:27.772Z,19.70
2019-02-16T20:32:12.141Z,19.80
2019-02-16T20:34:52.118Z,19.80
2019-02-16T20:37:20.064Z,19.90
2019-02-16T20:40:00.434Z,20.10
2019-02-16T20:42:40.235Z,20.30
2019-02-16T20:45:15.592Z,20.40
2019-02-16T20:47:52.377Z,20.50
2019-02-16T20:50:37.080Z,20.50
2019-02-16T20:53:07.979Z,22.10
2019-02-16T20:58:20.966Z,20.90
2019-02-16T21:00:52.142Z,21.00
2019-02-16T21:03:23.332Z,21.10
2019-02-16T21:06:03.535Z,21.10
2019-02-16T21:13:43.868Z,21.10
2019-02-16T21:16:11.815Z,21.10
2019-02-16T21:18:52.158Z,21.10
2019-02-16T21:21:20.105Z,21.10
2019-02-16T21:24:03.472Z,21.20
2019-02-16T21:26:37.208Z,21.20
2019-02-16T21:29:18.124Z,21.20
2019-02-16T21:32:03.095Z,21.20
2019-02-16T21:37:21.861Z,21.20
2019-02-16T21:40:08.469Z,21.20
2019-02-16T21:47:43.028Z,21.20
2019-02-16T21:50:27.988Z,21.20
2019-02-16T21:52:55.995Z,21.10
2019-02-16T21:55:23.949Z,21.20
2019-02-16T21:58:08.083Z,21.10
2019-02-16T22:00:37.947Z,21.10
2019-02-16T22:03:06.696Z,21.10
2019-02-16T22:05:40.268Z,21.10
2019-02-16T22:08:22.876Z,21.10
2019-02-16T22:11:03.184Z,21.10
2019-02-16T22:13:29.269Z,21.10
2019-02-16T22:15:55.600Z,21.10
2019-02-16T22:18:21.780Z,21.10
2019-02-16T22:20:47.828Z,21.10
2019-02-16T22:23:13.879Z,21.10
2019-02-16T22:25:40.196Z,21.10
2019-02-16T22:28:06.246Z,21.10
2019-02-16T22:32:59.041Z,21.00
2019-02-16T22:35:25.411Z,21.10
2019-02-16T22:37:51.744Z,21.00
2019-02-16T22:40:18.079Z,21.00
2019-02-16T22:42:44.126Z,21.00
2019-02-16T22:52:31.672Z,21.00
2019-02-16T22:54:57.747Z,21.00
2019-02-16T22:59:50.475Z,20.90
2019-02-16T23:07:09.578Z,20.90
2019-02-16T23:09:35.981Z,20.90
2019-02-16T23:12:02.728Z,20.80
2019-02-16T23:16:55.781Z,20.80
2019-02-16T23:26:41.721Z,20.80
2019-02-16T23:29:08.152Z,20.80
2019-02-16T23:34:00.944Z,20.80
2019-02-16T23:36:27.343Z,20.80
2019-02-16T23:38:53.672Z,20.70
2019-02-16T23:46:12.572Z,20.70
2019-02-16T23:48:38.895Z,20.70
2019-02-16T23:51:04.941Z,20.70
2019-02-16T23:55:57.676Z,20.70
